createdAt,value
2023-07-25T00:00:03.490Z,19.60
2023-07-25T00:02:31.718Z,19.50
2023-07-25T00:05:00.319Z,20.40
2023-07-25T00:07:29.043Z,20.58
2023-07-25T00:09:58.170Z,19.85
2023-07-25T00:12:27.100Z,19.17
2023-07-25T00:14:56.363Z,18.45
2023-07-25T00:17:25.003Z,18.65
2023-07-25T00:19:53.658Z,19.17
2023-07-25T00:22:22.557Z,18.80
2023-07-25T00:24:51.299Z,19.27
2023-07-25T00:27:19.984Z,17.05
2023-07-25T00:29:49.874Z,17.92
2023-07-25T00:32:18.538Z,18.50
2023-07-25T00:34:47.184Z,18.13
2023-07-25T00:37:15.836Z,17.40
2023-07-25T00:39:44.414Z,17.73
2023-07-25T00:42:12.851Z,17.45
2023-07-25T00:44:41.451Z,16.70
2023-07-25T00:47:10.093Z,16.75
2023-07-25T00:49:38.718Z,18.00
2023-07-25T00:52:07.782Z,17.20
2023-07-25T00:54:36.480Z,17.80
2023-07-25T00:57:05.200Z,17.42
2023-07-25T00:59:33.885Z,16.33
2023-07-25T01:02:02.821Z,16.58
2023-07-25T01:04:31.499Z,16.88
2023-07-25T01:07:02.501Z,17.55
2023-07-25T01:09:48.755Z,18.60
2023-07-25T01:12:17.388Z,17.05
2023-07-25T01:14:46.439Z,18.40
2023-07-25T01:17:21.177Z,18.95
2023-07-25T01:19:51.106Z,18.83
2023-07-25T01:22:21.262Z,19.88
2023-07-25T01:24:50.653Z,19.52
2023-07-25T01:27:19.564Z,19.05
2023-07-25T01:29:48.316Z,19.15
2023-07-25T01:32:16.980Z,19.98
2023-07-25T01:34:45.620Z,20.30
2023-07-25T01:37:14.589Z,19.30
2023-07-25T01:39:45.074Z,19.95
2023-07-25T01:42:13.780Z,19.92
2023-07-25T01:44:42.413Z,20.40
2023-07-25T01:47:11.564Z,20.95
2023-07-25T01:49:40.055Z,21.08
2023-07-25T01:52:09.348Z,21.67
2023-07-25T01:54:38.009Z,21.83
2023-07-25T01:57:07.011Z,21.95
2023-07-25T01:59:35.514Z,20.80
2023-07-25T02:02:04.326Z,21.20
2023-07-25T02:04:32.981Z,20.50
2023-07-25T02:07:01.599Z,20.70
2023-07-25T02:09:30.310Z,21.15
2023-07-25T02:12:01.014Z,22.40
2023-07-25T02:14:29.750Z,22.17
2023-07-25T02:16:58.356Z,21.30
2023-07-25T02:19:27.015Z,22.30
2023-07-25T02:21:55.629Z,23.73
2023-07-25T02:24:24.447Z,22.48
2023-07-25T02:26:53.021Z,22.58
2023-07-25T02:29:21.759Z,21.85
2023-07-25T02:31:50.392Z,22.58
2023-07-25T02:34:19.082Z,22.55
2023-07-25T02:36:47.697Z,23.13
2023-07-25T02:39:16.344Z,21.85
2023-07-25T02:41:44.982Z,23.67
2023-07-25T02:44:13.659Z,23.05
2023-07-25T02:46:42.296Z,23.45
2023-07-25T02:49:10.869Z,23.08
2023-07-25T02:51:39.561Z,22.17
2023-07-25T02:54:08.244Z,22.77
2023-07-25T02:56:36.718Z,21.90
2023-07-25T02:59:05.346Z,23.48
2023-07-25T03:01:34.201Z,23.13
2023-07-25T03:04:03.416Z,23.55
2023-07-25T03:06:32.016Z,23.73
2023-07-25T03:09:00.569Z,22.50
2023-07-25T03:11:29.464Z,22.35
2023-07-25T03:13:58.489Z,23.20
2023-07-25T03:16:27.313Z,23.52
2023-07-25T03:18:56.003Z,23.55
2023-07-25T03:21:25.740Z,21.85
2023-07-25T03:23:54.337Z,21.65
2023-07-25T03:26:23.025Z,22.63
2023-07-25T03:28:51.667Z,23.95
2023-07-25T03:31:20.259Z,21.95
2023-07-25T03:33:48.736Z,22.20
2023-07-25T03:36:17.403Z,22.10
2023-07-25T03:38:46.043Z,22.25
2023-07-25T03:41:14.901Z,23.40
2023-07-25T03:43:43.615Z,21.58
2023-07-25T03:46:12.228Z,22.70
2023-07-25T03:48:41.887Z,24.50
2023-07-25T03:51:10.455Z,24.80
2023-07-25T03:53:39.134Z,24.13
2023-07-25T03:56:07.767Z,24.58
2023-07-25T03:58:36.366Z,24.45
2023-07-25T04:01:05.039Z,23.55
2023-07-25T04:03:33.708Z,23.02
2023-07-25T04:06:02.446Z,22.10
2023-07-25T04:08:31.189Z,24.48
2023-07-25T04:10:59.882Z,22.50
2023-07-25T04:13:27.851Z,22.17
2023-07-25T04:15:56.629Z,24.25
2023-07-25T04:18:25.274Z,21.20
2023-07-25T04:20:54.476Z,22.17
2023-07-25T04:23:24.562Z,22.98
2023-07-25T04:25:53.216Z,22.63
2023-07-25T04:28:21.858Z,22.73
2023-07-25T04:30:50.593Z,23.55
2023-07-25T04:33:19.236Z,21.83
2023-07-25T04:35:48.012Z,22.92
2023-07-25T04:38:17.237Z,22.70
2023-07-25T04:40:46.446Z,22.92
2023-07-25T04:43:15.097Z,23.00
2023-07-25T04:45:44.000Z,23.70
2023-07-25T04:48:12.703Z,22.80
2023-07-25T04:50:41.403Z,23.65
2023-07-25T04:53:10.075Z,22.90
2023-07-25T04:55:38.674Z,22.90
2023-07-25T04:58:07.295Z,22.83
2023-07-25T05:00:35.951Z,22.98
2023-07-25T05:03:04.682Z,23.27
2023-07-25T05:05:33.332Z,22.75
2023-07-25T05:08:02.084Z,23.10
2023-07-25T05:10:30.731Z,21.00
2023-07-25T05:12:59.442Z,21.77
2023-07-25T05:15:28.085Z,22.42
2023-07-25T05:17:56.715Z,22.20
2023-07-25T05:20:25.424Z,22.83
2023-07-25T05:22:54.462Z,22.45
2023-07-25T05:25:23.122Z,22.92
2023-07-25T05:27:51.842Z,21.38
2023-07-25T05:30:20.466Z,21.70
2023-07-25T05:32:52.203Z,22.17
2023-07-25T05:35:20.836Z,23.02
2023-07-25T05:37:49.453Z,22.75
2023-07-25T05:40:18.160Z,22.77
2023-07-25T05:42:46.758Z,23.17
2023-07-25T05:45:15.699Z,23.33
2023-07-25T05:47:44.555Z,22.30
2023-07-25T05:50:14.030Z,24.98
2023-07-25T05:52:42.688Z,25.15
2023-07-25T05:55:11.465Z,25.13
2023-07-25T05:57:40.116Z,24.48
2023-07-25T06:00:09.354Z,6.30
2023-07-25T06:02:38.139Z,2.10
2023-07-25T06:05:07.273Z,1.63
2023-07-25T06:07:35.922Z,1.40
2023-07-25T06:10:04.841Z,1.38
2023-07-25T06:12:33.748Z,0.90
2023-07-25T06:15:02.433Z,1.30
2023-07-25T06:17:31.196Z,1.33
2023-07-25T06:19:59.869Z,1.38
2023-07-25T06:22:28.942Z,1.30
2023-07-25T06:24:57.783Z,1.20
2023-07-25T06:27:27.021Z,1.30
2023-07-25T06:29:55.946Z,2.10
2023-07-25T06:32:25.464Z,1.40
2023-07-25T06:34:54.247Z,1.60
2023-07-25T06:37:23.049Z,1.70
2023-07-25T06:39:51.728Z,1.80
2023-07-25T06:42:20.503Z,1.48
2023-07-25T06:44:48.557Z,1.30
2023-07-25T06:47:17.201Z,1.35
2023-07-25T06:49:45.856Z,1.50
2023-07-25T06:52:14.575Z,1.15
2023-07-25T06:54:46.518Z,1.67
2023-07-25T06:57:15.277Z,1.58
2023-07-25T06:59:43.995Z,1.58
2023-07-25T07:02:12.016Z,1.98
2023-07-25T07:04:40.791Z,2.60
2023-07-25T07:07:09.526Z,2.60
2023-07-25T07:09:38.191Z,2.90
2023-07-25T07:12:07.451Z,2.85
2023-07-25T07:14:36.164Z,3.30
2023-07-25T07:17:05.330Z,3.47
2023-07-25T07:19:34.079Z,3.67
2023-07-25T07:22:03.477Z,3.42
2023-07-25T07:24:32.303Z,3.55
2023-07-25T07:27:00.979Z,3.70
2023-07-25T07:29:31.710Z,3.58
2023-07-25T07:32:02.385Z,3.55
2023-07-25T07:34:31.832Z,3.45
2023-07-25T07:37:00.807Z,3.60
2023-07-25T07:39:29.660Z,3.65
2023-07-25T07:41:58.507Z,3.60
2023-07-25T07:44:27.164Z,3.80
2023-07-25T07:46:55.898Z,3.55
2023-07-25T07:49:24.696Z,4.00
2023-07-25T07:52:10.305Z,3.35
2023-07-25T07:54:42.876Z,3.40
2023-07-25T07:57:11.562Z,3.25
2023-07-25T07:59:40.454Z,3.00
2023-07-25T08:02:09.198Z,2.67
2023-07-25T08:04:38.302Z,2.78
2023-07-25T08:07:07.179Z,2.63
2023-07-25T08:09:36.129Z,3.00
2023-07-25T08:12:06.017Z,3.17
2023-07-25T08:14:34.678Z,3.10
2023-07-25T08:17:03.482Z,3.05
2023-07-25T08:19:32.287Z,2.88
2023-07-25T08:22:01.537Z,2.95
2023-07-25T08:24:30.327Z,3.20
2023-07-25T08:26:59.024Z,3.17
2023-07-25T08:29:28.680Z,3.13
2023-07-25T08:31:57.454Z,2.80
2023-07-25T08:34:26.281Z,3.17
2023-07-25T08:36:54.930Z,3.13
2023-07-25T08:39:23.653Z,2.92
2023-07-25T08:41:56.390Z,3.03
2023-07-25T08:44:27.556Z,3.17
2023-07-25T08:46:58.943Z,2.80
2023-07-25T08:49:33.358Z,2.92
2023-07-25T08:52:05.420Z,2.85
2023-07-25T08:54:39.451Z,2.83
2023-07-25T08:57:09.484Z,3.03
2023-07-25T08:59:38.447Z,2.95
2023-07-25T09:02:08.913Z,3.45
2023-07-25T09:04:38.154Z,3.17
2023-07-25T09:07:08.593Z,3.25
2023-07-25T09:09:37.227Z,2.95
2023-07-25T09:12:06.753Z,3.03
2023-07-25T09:14:35.673Z,3.20
2023-07-25T09:17:04.236Z,3.30
2023-07-25T09:19:34.207Z,3.20
2023-07-25T09:22:04.352Z,3.00
2023-07-25T09:24:40.959Z,3.20
2023-07-25T09:27:19.773Z,3.20
2023-07-25T09:29:51.984Z,2.63
2023-07-25T09:32:26.600Z,3.42
2023-07-25T09:35:03.383Z,2.95
2023-07-25T09:37:32.134Z,2.90
2023-07-25T09:40:01.156Z,3.17
2023-07-25T09:42:29.748Z,3.40
2023-07-25T09:44:59.284Z,3.28
2023-07-25T09:47:30.542Z,3.30
2023-07-25T09:49:59.503Z,3.00
2023-07-25T09:52:28.458Z,3.55
2023-07-25T09:54:57.469Z,3.00
2023-07-25T09:57:26.423Z,3.42
2023-07-25T09:59:56.621Z,3.20
2023-07-25T10:02:27.368Z,3.58
2023-07-25T10:04:59.592Z,3.35
2023-07-25T10:07:28.555Z,3.60
2023-07-25T10:09:59.953Z,3.25
2023-07-25T10:12:28.588Z,3.40
2023-07-25T10:14:58.540Z,3.72
2023-07-25T10:17:27.811Z,3.88
2023-07-25T10:19:57.270Z,3.40
2023-07-25T10:22:44.702Z,3.42
2023-07-25T10:25:32.709Z,3.97
2023-07-25T10:28:01.620Z,3.88
2023-07-25T10:30:32.250Z,4.25
2023-07-25T10:33:06.055Z,3.75
2023-07-25T10:35:52.024Z,3.83
2023-07-25T10:38:37.988Z,4.00
2023-07-25T10:41:15.874Z,3.58
2023-07-25T10:43:51.471Z,3.92
2023-07-25T10:46:24.938Z,3.47
2023-07-25T10:48:55.926Z,3.75
2023-07-25T10:51:24.854Z,3.85
2023-07-25T10:54:12.653Z,3.60
2023-07-25T10:56:42.578Z,3.67
2023-07-25T10:59:11.280Z,3.63
2023-07-25T11:01:49.755Z,4.05
2023-07-25T11:04:34.455Z,3.78
2023-07-25T11:07:13.710Z,3.65
2023-07-25T11:09:44.577Z,3.45
2023-07-25T11:12:14.580Z,3.88
2023-07-25T11:14:47.219Z,3.65
2023-07-25T11:17:16.134Z,3.80
2023-07-25T11:19:44.874Z,4.10
2023-07-25T11:22:14.924Z,4.22
2023-07-25T11:24:45.187Z,3.70
2023-07-25T11:27:15.373Z,3.60
2023-07-25T11:29:44.269Z,3.42
2023-07-25T11:32:13.030Z,3.47
2023-07-25T11:34:42.499Z,4.00
2023-07-25T11:37:14.599Z,3.55
2023-07-25T11:39:43.367Z,3.80
2023-07-25T11:42:12.119Z,4.10
2023-07-25T11:44:40.685Z,3.40
2023-07-25T11:47:09.819Z,3.20
2023-07-25T11:49:49.523Z,3.53
2023-07-25T11:52:20.077Z,3.70
2023-07-25T11:54:48.800Z,3.75
2023-07-25T11:57:17.430Z,3.78
2023-07-25T11:59:46.033Z,3.67
2023-07-25T12:02:15.146Z,3.88
2023-07-25T12:04:47.950Z,3.50
2023-07-25T12:07:16.806Z,3.42
2023-07-25T12:09:55.645Z,3.78
2023-07-25T12:12:24.288Z,3.58
2023-07-25T12:15:00.812Z,4.00
2023-07-25T12:17:45.956Z,4.13
2023-07-25T12:20:23.772Z,4.35
2023-07-25T12:23:07.298Z,4.68
2023-07-25T12:25:39.086Z,3.95
2023-07-25T12:28:07.967Z,4.18
2023-07-25T12:30:36.607Z,4.50
2023-07-25T12:33:05.380Z,4.38
2023-07-25T12:35:34.925Z,4.78
2023-07-25T12:38:04.005Z,4.45
2023-07-25T12:40:33.001Z,5.00
2023-07-25T12:43:01.637Z,4.82
2023-07-25T12:45:30.325Z,5.03
2023-07-25T12:47:59.090Z,4.45
2023-07-25T12:50:28.002Z,4.90
2023-07-25T12:52:56.660Z,5.53
2023-07-25T12:55:25.525Z,4.50
2023-07-25T12:57:54.199Z,4.57
2023-07-25T13:00:22.846Z,4.80
2023-07-25T13:02:51.636Z,4.88
2023-07-25T13:05:21.318Z,4.78
2023-07-25T13:07:50.204Z,4.63
2023-07-25T13:10:18.339Z,4.03
2023-07-25T13:12:46.974Z,4.30
2023-07-25T13:15:15.637Z,4.20
2023-07-25T13:17:44.413Z,3.80
2023-07-25T13:20:13.035Z,3.90
2023-07-25T13:22:41.952Z,4.50
2023-07-25T13:25:10.605Z,4.15
2023-07-25T13:27:39.275Z,3.72
2023-07-25T13:30:08.712Z,4.53
2023-07-25T13:32:37.482Z,3.88
2023-07-25T13:35:06.802Z,3.47
2023-07-25T13:37:35.506Z,3.70
2023-07-25T13:40:04.311Z,3.75
2023-07-25T13:42:34.201Z,3.58
2023-07-25T13:45:02.799Z,3.90
2023-07-25T13:47:31.433Z,3.80
2023-07-25T13:50:05.164Z,3.40
2023-07-25T13:52:33.939Z,3.70
2023-07-25T13:55:02.516Z,3.47
2023-07-25T13:57:33.483Z,4.00
2023-07-25T14:00:03.390Z,3.85
2023-07-25T14:02:32.081Z,3.72
2023-07-25T14:05:00.817Z,3.53
2023-07-25T14:07:29.419Z,4.00
2023-07-25T14:09:58.159Z,3.50
2023-07-25T14:12:27.792Z,4.43
2023-07-25T14:14:58.803Z,3.90
2023-07-25T14:17:28.580Z,3.83
2023-07-25T14:19:57.296Z,3.78
2023-07-25T14:22:26.796Z,3.95
2023-07-25T14:24:57.589Z,3.33
2023-07-25T14:27:27.738Z,3.40
2023-07-25T14:29:56.437Z,3.17
2023-07-25T14:32:26.697Z,3.40
2023-07-25T14:34:55.642Z,3.33
2023-07-25T14:37:25.364Z,3.50
2023-07-25T14:39:55.053Z,3.80
2023-07-25T14:42:23.757Z,3.03
2023-07-25T14:44:52.363Z,3.03
2023-07-25T14:47:21.393Z,2.50
2023-07-25T14:49:50.133Z,2.80
2023-07-25T14:52:18.904Z,2.45
2023-07-25T14:54:47.542Z,2.08
2023-07-25T14:57:19.387Z,1.88
2023-07-25T14:59:48.050Z,1.90
2023-07-25T15:02:18.700Z,1.90
2023-07-25T15:04:47.612Z,1.70
2023-07-25T15:07:16.229Z,1.67
2023-07-25T15:09:44.957Z,1.98
2023-07-25T15:12:13.879Z,1.83
2023-07-25T15:14:42.583Z,2.00
2023-07-25T15:17:24.923Z,1.73
2023-07-25T15:20:00.726Z,2.20
2023-07-25T15:22:30.702Z,1.73
2023-07-25T15:24:59.996Z,1.95
2023-07-25T15:27:30.000Z,1.80
2023-07-25T15:29:59.426Z,2.00
2023-07-25T15:32:28.065Z,2.15
2023-07-25T15:34:56.832Z,2.10
2023-07-25T15:37:25.570Z,2.20
2023-07-25T15:39:54.260Z,2.22
2023-07-25T15:42:22.911Z,2.35
2023-07-25T15:44:51.511Z,2.10
2023-07-25T15:47:20.122Z,2.00
2023-07-25T15:49:48.757Z,2.40
2023-07-25T15:52:17.453Z,1.73
2023-07-25T15:54:46.141Z,1.80
2023-07-25T15:57:14.714Z,2.25
2023-07-25T15:59:43.399Z,1.98
2023-07-25T16:02:12.156Z,2.00
2023-07-25T16:04:40.858Z,2.08
2023-07-25T16:07:09.526Z,1.98
2023-07-25T16:09:38.876Z,2.72
2023-07-25T16:12:10.334Z,2.55
2023-07-25T16:14:39.045Z,2.13
2023-07-25T16:17:07.821Z,2.40
2023-07-25T16:19:36.492Z,2.20
2023-07-25T16:22:05.697Z,2.05
2023-07-25T16:24:34.391Z,2.05
2023-07-25T16:27:03.042Z,2.33
2023-07-25T16:29:31.821Z,1.90
2023-07-25T16:32:01.052Z,1.83
2023-07-25T16:34:29.708Z,2.03
2023-07-25T16:36:58.353Z,1.70
2023-07-25T16:39:27.028Z,1.83
2023-07-25T16:41:58.743Z,1.65
2023-07-25T16:44:27.448Z,1.70
2023-07-25T16:46:56.089Z,2.58
2023-07-25T16:49:24.718Z,1.60
2023-07-25T16:51:53.349Z,1.67
2023-07-25T16:54:22.127Z,1.42
2023-07-25T16:56:50.781Z,2.00
2023-07-25T16:59:19.381Z,1.85
2023-07-25T17:01:48.054Z,2.40
2023-07-25T17:04:16.792Z,1.73
2023-07-25T17:06:45.402Z,1.80
2023-07-25T17:09:14.082Z,1.75
2023-07-25T17:11:44.824Z,1.92
2023-07-25T17:14:13.464Z,1.70
2023-07-25T17:16:41.940Z,2.10
2023-07-25T17:19:10.595Z,1.80
2023-07-25T17:21:41.376Z,1.88
2023-07-25T17:24:10.752Z,2.33
2023-07-25T17:26:39.723Z,1.98
2023-07-25T17:29:08.389Z,2.08
2023-07-25T17:31:37.212Z,1.95
2023-07-25T17:34:06.163Z,1.67
2023-07-25T17:36:34.773Z,1.98
2023-07-25T17:39:03.933Z,1.90
2023-07-25T17:41:33.253Z,1.55
2023-07-25T17:44:02.067Z,1.85
2023-07-25T17:46:30.716Z,1.35
2023-07-25T17:49:01.324Z,1.33
2023-07-25T17:51:30.422Z,1.40
2023-07-25T17:53:59.334Z,1.63
2023-07-25T17:56:28.053Z,1.55
2023-07-25T17:58:56.682Z,1.30
2023-07-25T18:01:25.432Z,1.20
2023-07-25T18:03:54.138Z,1.13
2023-07-25T18:06:22.721Z,1.63
2023-07-25T18:08:51.560Z,1.40
2023-07-25T18:11:20.199Z,1.30
2023-07-25T18:13:48.866Z,0.90
2023-07-25T18:16:17.481Z,1.50
2023-07-25T18:18:46.160Z,1.20
2023-07-25T18:21:15.277Z,1.00
2023-07-25T18:23:43.904Z,1.38
2023-07-25T18:26:12.964Z,1.00
2023-07-25T18:28:41.596Z,1.30
2023-07-25T18:31:10.965Z,1.27
2023-07-25T18:33:41.045Z,0.90
2023-07-25T18:36:09.758Z,1.10
2023-07-25T18:38:38.507Z,1.27
2023-07-25T18:41:07.214Z,1.10
2023-07-25T18:43:35.895Z,1.05
2023-07-25T18:46:04.497Z,1.20
2023-07-25T18:48:33.228Z,1.30
2023-07-25T18:51:03.184Z,1.40
2023-07-25T18:53:31.857Z,1.50
2023-07-25T18:56:00.698Z,1.10
2023-07-25T18:58:31.021Z,1.60
2023-07-25T19:00:59.813Z,1.20
2023-07-25T19:03:30.143Z,1.23
2023-07-25T19:05:59.078Z,1.30
2023-07-25T19:08:27.832Z,1.00
2023-07-25T19:10:56.567Z,1.20
2023-07-25T19:13:25.146Z,1.02
2023-07-25T19:15:53.886Z,1.02
2023-07-25T19:18:22.561Z,1.10
2023-07-25T19:20:51.671Z,0.82
2023-07-25T19:23:26.500Z,0.88
2023-07-25T19:26:02.796Z,1.00
2023-07-25T19:28:31.626Z,1.10
2023-07-25T19:31:01.065Z,0.85
2023-07-25T19:33:32.367Z,0.95
2023-07-25T19:36:01.905Z,0.80
2023-07-25T19:38:30.965Z,1.10
2023-07-25T19:40:59.930Z,0.90
2023-07-25T19:43:28.581Z,0.90
2023-07-25T19:46:04.013Z,1.33
2023-07-25T19:48:32.792Z,0.80
2023-07-25T19:51:01.458Z,0.88
2023-07-25T19:53:30.015Z,0.65
2023-07-25T19:55:58.818Z,0.70
2023-07-25T19:58:27.447Z,0.85
2023-07-25T20:00:56.336Z,0.68
2023-07-25T20:03:25.148Z,0.70
2023-07-25T20:05:53.851Z,0.80
2023-07-25T20:08:22.426Z,0.70
2023-07-25T20:10:51.036Z,0.77
2023-07-25T20:13:19.807Z,0.60
2023-07-25T20:15:48.578Z,0.80
2023-07-25T20:18:17.279Z,0.80
2023-07-25T20:20:46.000Z,0.90
2023-07-25T20:23:14.863Z,0.70
2023-07-25T20:25:43.504Z,0.70
2023-07-25T20:28:12.100Z,0.80
2023-07-25T20:30:40.700Z,0.70
2023-07-25T20:33:09.215Z,0.60
2023-07-25T20:35:38.413Z,0.70
2023-07-25T20:38:06.988Z,0.80
2023-07-25T20:40:36.490Z,0.57
2023-07-25T20:43:05.182Z,0.70
2023-07-25T20:45:37.390Z,0.70
2023-07-25T20:48:06.775Z,0.90
2023-07-25T20:50:35.239Z,0.60
2023-07-25T20:53:07.191Z,0.57
2023-07-25T20:55:36.106Z,0.70
2023-07-25T20:58:04.798Z,0.60
2023-07-25T21:00:33.528Z,0.60
2023-07-25T21:03:02.161Z,0.65
2023-07-25T21:05:30.862Z,0.65
2023-07-25T21:07:59.518Z,0.60
2023-07-25T21:10:28.285Z,0.70
2023-07-25T21:12:56.928Z,0.80
2023-07-25T21:15:25.540Z,0.60
2023-07-25T21:18:06.680Z,0.55
2023-07-25T21:20:40.195Z,0.65
2023-07-25T21:23:08.865Z,0.50
2023-07-25T21:25:39.672Z,0.60
2023-07-25T21:28:08.362Z,0.60
2023-07-25T21:30:37.042Z,0.60
2023-07-25T21:33:06.046Z,0.52
2023-07-25T21:35:34.826Z,0.55
2023-07-25T21:38:03.510Z,0.45
2023-07-25T21:40:32.256Z,0.60
2023-07-25T21:43:00.945Z,0.50
2023-07-25T21:45:29.620Z,0.68
2023-07-25T21:47:58.252Z,0.60
2023-07-25T21:50:26.950Z,0.50
2023-07-25T21:52:55.744Z,0.50
2023-07-25T21:55:24.428Z,0.50
2023-07-25T21:57:53.042Z,0.57
2023-07-25T22:00:21.739Z,0.52
2023-07-25T22:02:50.432Z,1.00
2023-07-25T22:05:19.020Z,0.63
2023-07-25T22:07:48.695Z,0.50
2023-07-25T22:10:17.568Z,0.65
2023-07-25T22:12:49.171Z,0.50
2023-07-25T22:15:18.112Z,0.73
2023-07-25T22:17:46.750Z,0.98
2023-07-25T22:20:15.494Z,0.60
2023-07-25T22:22:44.230Z,0.50
2023-07-25T22:25:13.119Z,0.60
2023-07-25T22:27:41.589Z,0.80
2023-07-25T22:30:10.607Z,0.60
2023-07-25T22:32:39.372Z,0.60
2023-07-25T22:35:09.502Z,0.60
2023-07-25T22:37:38.225Z,0.60
2023-07-25T22:40:07.548Z,0.70
2023-07-25T22:42:36.108Z,0.50
2023-07-25T22:45:04.758Z,0.60
2023-07-25T22:47:33.460Z,0.60
2023-07-25T22:50:02.126Z,0.73
2023-07-25T22:52:30.807Z,0.82
2023-07-25T22:54:59.471Z,0.60
2023-07-25T22:57:28.111Z,0.57
2023-07-25T22:59:56.752Z,0.60
2023-07-25T23:02:25.489Z,0.43
2023-07-25T23:04:54.092Z,0.80
2023-07-25T23:07:22.711Z,0.65
2023-07-25T23:09:52.668Z,0.70
2023-07-25T23:12:23.574Z,0.90
2023-07-25T23:14:52.852Z,0.60
2023-07-25T23:17:21.367Z,1.60
2023-07-25T23:19:49.990Z,0.60
2023-07-25T23:22:18.666Z,0.70
2023-07-25T23:24:47.371Z,0.60
2023-07-25T23:27:16.067Z,0.65
2023-07-25T23:29:44.928Z,0.73
2023-07-25T23:32:13.531Z,0.63
2023-07-25T23:34:50.515Z,1.00
2023-07-25T23:37:19.418Z,0.60
2023-07-25T23:39:47.351Z,0.63
2023-07-25T23:42:17.418Z,0.80
2023-07-25T23:44:46.045Z,0.93
2023-07-25T23:47:14.724Z,0.70
2023-07-25T23:49:43.542Z,1.00
2023-07-25T23:52:12.204Z,1.10
2023-07-25T23:54:40.895Z,1.60
2023-07-25T23:57:09.786Z,1.20
2023-07-25T23:59:38.824Z,0.93
